Terminal Aerodrome Forecast
Issued by NWS

Home | Current Version | Previous Version | Text Only | Print | Product List | Glossary On
Versions: 1 2 3 4 5 6 7 8 9 10 11 12 13 14 15 16
000
FTUS42 TJSJ 281100
TAFISX
TAF
TISX 281140Z 2812/2912 07013KT P6SM VCSH FEW025
     FM281300 07015G25KT P6SM SCT025
     FM282100 07012G20KT P6SM SCT028=

USA.gov is the U.S. government's official web portal to all federal, state and local government web resources and services.